sensor_id;sensor_type;location;lat;lon;timestamp;temperature;humidity
64396;DHT22;50717;53.360;6.290;2023-09-07T00:01:26;20.80;99.90
64396;DHT22;50717;53.360;6.290;2023-09-07T00:03:52;20.80;99.90
64396;DHT22;50717;53.360;6.290;2023-09-07T00:06:18;20.50;99.90
64396;DHT22;50717;53.360;6.290;2023-09-07T00:08:44;20.80;99.90
64396;DHT22;50717;53.360;6.290;2023-09-07T00:11:09;20.20;99.90
64396;DHT22;50717;53.360;6.290;2023-09-07T00:13:36;20.80;99.90
64396;DHT22;50717;53.360;6.290;2023-09-07T00:16:05;20.80;99.90
64396;DHT22;50717;53.360;6.290;2023-09-07T00:18:32;20.80;99.90
64396;DHT22;50717;53.360;6.290;2023-09-07T00:21:01;20.50;99.90
64396;DHT22;50717;53.360;6.290;2023-09-07T00:23:27;20.30;99.90
64396;DHT22;50717;53.360;6.290;2023-09-07T00:25:52;20.70;99.90
64396;DHT22;50717;53.360;6.290;2023-09-07T00:28:18;20.70;99.90
64396;DHT22;50717;53.360;6.290;2023-09-07T00:30:44;20.50;99.90
64396;DHT22;50717;53.360;6.290;2023-09-07T00:33:10;20.40;99.90
64396;DHT22;50717;53.360;6.290;2023-09-07T00:35:36;20.50;99.90
64396;DHT22;50717;53.360;6.290;2023-09-07T00:38:02;20.20;99.90
64396;DHT22;50717;53.360;6.290;2023-09-07T00:40:27;20.40;99.90
64396;DHT22;50717;53.360;6.290;2023-09-07T00:42:53;20.40;99.90
64396;DHT22;50717;53.360;6.290;2023-09-07T00:45:19;20.20;99.90
64396;DHT22;50717;53.360;6.290;2023-09-07T00:47:45;19.90;99.90
64396;DHT22;50717;53.360;6.290;2023-09-07T00:50:11;20.20;99.90
64396;DHT22;50717;53.360;6.290;2023-09-07T00:52:46;20.20;99.90
64396;DHT22;50717;53.360;6.290;2023-09-07T00:55:13;20.10;99.90
64396;DHT22;50717;53.360;6.290;2023-09-07T00:57:39;19.80;99.90
64396;DHT22;50717;53.360;6.290;2023-09-07T01:00:06;19.90;99.90
64396;DHT22;50717;53.360;6.290;2023-09-07T01:02:33;20.10;99.90
64396;DHT22;50717;53.360;6.290;2023-09-07T01:04:59;20.00;99.90
64396;DHT22;50717;53.360;6.290;2023-09-07T01:07:32;19.80;99.90
64396;DHT22;50717;53.360;6.290;2023-09-07T01:10:00;19.90;99.90
64396;DHT22;50717;53.360;6.290;2023-09-07T01:12:27;19.80;99.90
64396;DHT22;50717;53.360;6.290;2023-09-07T01:14:53;20.00;99.90
64396;DHT22;50717;53.360;6.290;2023-09-07T01:17:20;19.90;99.90
64396;DHT22;50717;53.360;6.290;2023-09-07T01:19:50;19.80;99.90
64396;DHT22;50717;53.360;6.290;2023-09-07T01:22:20;20.00;99.90
64396;DHT22;50717;53.360;6.290;2023-09-07T01:24:50;19.90;99.90
64396;DHT22;50717;53.360;6.290;2023-09-07T01:27:17;19.90;99.90
64396;DHT22;50717;53.360;6.290;2023-09-07T01:29:43;19.80;99.90
64396;DHT22;50717;53.360;6.290;2023-09-07T01:32:09;19.90;99.90
64396;DHT22;50717;53.360;6.290;2023-09-07T01:34:39;19.40;99.90
64396;DHT22;50717;53.360;6.290;2023-09-07T01:37:05;19.60;99.90
64396;DHT22;50717;53.360;6.290;2023-09-07T01:39:30;19.60;99.90
64396;DHT22;50717;53.360;6.290;2023-09-07T01:41:56;19.70;99.90
64396;DHT22;50717;53.360;6.290;2023-09-07T01:44:22;19.50;99.90
64396;DHT22;50717;53.360;6.290;2023-09-07T01:46:47;19.50;99.90
64396;DHT22;50717;53.360;6.290;2023-09-07T01:49:13;19.70;99.90
64396;DHT22;50717;53.360;6.290;2023-09-07T01:51:39;19.50;99.90
64396;DHT22;50717;53.360;6.290;2023-09-07T01:54:04;19.50;99.90
64396;DHT22;50717;53.360;6.290;2023-09-07T01:56:30;19.10;99.90
64396;DHT22;50717;53.360;6.290;2023-09-07T01:58:56;19.40;99.90
64396;DHT22;50717;53.360;6.290;2023-09-07T02:01:23;19.40;99.90
64396;DHT22;50717;53.360;6.290;2023-09-07T02:03:49;19.30;99.90
64396;DHT22;50717;53.360;6.290;2023-09-07T02:06:15;19.30;99.90
64396;DHT22;50717;53.360;6.290;2023-09-07T02:08:41;19.20;99.90
64396;DHT22;50717;53.360;6.290;2023-09-07T02:11:06;19.00;99.90
64396;DHT22;50717;53.360;6.290;2023-09-07T02:13:32;19.20;99.90
64396;DHT22;50717;53.360;6.290;2023-09-07T02:15:58;19.00;99.90
64396;DHT22;50717;53.360;6.290;2023-09-07T02:18:24;18.80;99.90
64396;DHT22;50717;53.360;6.290;2023-09-07T02:20:49;19.00;99.90
64396;DHT22;50717;53.360;6.290;2023-09-07T02:23:15;19.10;99.90
64396;DHT22;50717;53.360;6.290;2023-09-07T02:25:41;19.30;99.90
64396;DHT22;50717;53.360;6.290;2023-09-07T02:28:06;19.10;99.90
64396;DHT22;50717;53.360;6.290;2023-09-07T02:30:32;19.00;99.90
64396;DHT22;50717;53.360;6.290;2023-09-07T02:32:58;18.80;99.90
64396;DHT22;50717;53.360;6.290;2023-09-07T02:35:24;19.00;99.90
64396;DHT22;50717;53.360;6.290;2023-09-07T02:37:49;19.10;99.90
64396;DHT22;50717;53.360;6.290;2023-09-07T02:40:15;18.90;99.90
64396;DHT22;50717;53.360;6.290;2023-09-07T02:42:42;19.00;99.90
64396;DHT22;50717;53.360;6.290;2023-09-07T02:45:11;18.90;99.90
64396;DHT22;50717;53.360;6.290;2023-09-07T02:47:38;19.10;99.90
64396;DHT22;50717;53.360;6.290;2023-09-07T02:50:04;18.80;99.90
64396;DHT22;50717;53.360;6.290;2023-09-07T02:52:31;18.90;99.90
64396;DHT22;50717;53.360;6.290;2023-09-07T02:54:56;18.50;99.90
64396;DHT22;50717;53.360;6.290;2023-09-07T02:57:22;18.90;99.90
64396;DHT22;50717;53.360;6.290;2023-09-07T02:59:48;18.80;99.90
64396;DHT22;50717;53.360;6.290;2023-09-07T03:02:14;18.40;99.90
64396;DHT22;50717;53.360;6.290;2023-09-07T03:04:39;18.60;99.90
64396;DHT22;50717;53.360;6.290;2023-09-07T03:07:05;18.70;99.90
64396;DHT22;50717;53.360;6.290;2023-09-07T03:09:31;18.70;99.90
64396;DHT22;50717;53.360;6.290;2023-09-07T03:11:56;18.40;99.90
64396;DHT22;50717;53.360;6.290;2023-09-07T03:14:22;18.70;99.90
64396;DHT22;50717;53.360;6.290;2023-09-07T03:16:48;18.60;99.90
64396;DHT22;50717;53.360;6.290;2023-09-07T03:19:16;18.70;99.90
64396;DHT22;50717;53.360;6.290;2023-09-07T03:21:42;18.50;99.90
64396;DHT22;50717;53.360;6.290;2023-09-07T03:24:07;18.30;99.90
64396;DHT22;50717;53.360;6.290;2023-09-07T03:26:33;18.40;99.90
64396;DHT22;50717;53.360;6.290;2023-09-07T03:29:00;18.60;99.90
64396;DHT22;50717;53.360;6.290;2023-09-07T03:31:25;18.40;99.90
64396;DHT22;50717;53.360;6.290;2023-09-07T03:33:51;18.10;99.90
64396;DHT22;50717;53.360;6.290;2023-09-07T03:36:17;18.30;99.90
64396;DHT22;50717;53.360;6.290;2023-09-07T03:38:43;18.50;99.90
64396;DHT22;50717;53.360;6.290;2023-09-07T03:41:09;18.40;99.90
64396;DHT22;50717;53.360;6.290;2023-09-07T03:43:34;18.20;99.90
64396;DHT22;50717;53.360;6.290;2023-09-07T03:46:00;18.60;99.90
64396;DHT22;50717;53.360;6.290;2023-09-07T03:48:26;18.50;99.90
64396;DHT22;50717;53.360;6.290;2023-09-07T03:50:51;18.10;99.90
64396;DHT22;50717;53.360;6.290;2023-09-07T03:53:17;18.20;99.90
64396;DHT22;50717;53.360;6.290;2023-09-07T03:55:44;18.50;99.90
64396;DHT22;50717;53.360;6.290;2023-09-07T03:58:10;18.50;99.90
64396;DHT22;50717;53.360;6.290;2023-09-07T04:00:40;18.30;99.90
64396;DHT22;50717;53.360;6.290;2023-09-07T04:03:07;18.00;99.90
64396;DHT22;50717;53.360;6.290;2023-09-07T04:05:33;18.10;99.90
64396;DHT22;50717;53.360;6.290;2023-09-07T04:07:59;18.10;99.90
64396;DHT22;50717;53.360;6.290;2023-09-07T04:10:26;18.10;99.90
64396;DHT22;50717;53.360;6.290;2023-09-07T04:12:51;18.00;99.90
64396;DHT22;50717;53.360;6.290;2023-09-07T04:15:17;18.40;99.90
64396;DHT22;50717;53.360;6.290;2023-09-07T04:17:43;17.80;99.90
64396;DHT22;50717;53.360;6.290;2023-09-07T04:20:09;17.90;99.90
64396;DHT22;50717;53.360;6.290;2023-09-07T04:22:35;18.10;99.90
64396;DHT22;50717;53.360;6.290;2023-09-07T04:25:01;18.00;99.90
64396;DHT22;50717;53.360;6.290;2023-09-07T04:27:27;17.90;99.90
64396;DHT22;50717;53.360;6.290;2023-09-07T04:29:53;17.80;99.90
64396;DHT22;50717;53.360;6.290;2023-09-07T04:32:19;17.90;99.90
64396;DHT22;50717;53.360;6.290;2023-09-07T04:34:44;18.00;99.90
64396;DHT22;50717;53.360;6.290;2023-09-07T04:37:11;17.90;99.90
64396;DHT22;50717;53.360;6.290;2023-09-07T04:39:37;17.50;99.90
64396;DHT22;50717;53.360;6.290;2023-09-07T04:42:02;18.00;99.90
64396;DHT22;50717;53.360;6.290;2023-09-07T04:44:28;17.80;99.90
64396;DHT22;50717;53.360;6.290;2023-09-07T04:46:57;17.70;99.90
64396;DHT22;50717;53.360;6.290;2023-09-07T04:49:23;17.70;99.90
64396;DHT22;50717;53.360;6.290;2023-09-07T04:51:53;17.70;99.90
64396;DHT22;50717;53.360;6.290;2023-09-07T04:54:19;17.80;99.90
64396;DHT22;50717;53.360;6.290;2023-09-07T04:56:44;17.50;99.90
64396;DHT22;50717;53.360;6.290;2023-09-07T04:59:10;17.80;99.90
64396;DHT22;50717;53.360;6.290;2023-09-07T05:01:35;17.60;99.90
64396;DHT22;50717;53.360;6.290;2023-09-07T05:04:01;18.00;99.90
64396;DHT22;50717;53.360;6.290;2023-09-07T05:06:29;17.90;99.90
64396;DHT22;50717;53.360;6.290;2023-09-07T05:08:55;18.00;99.90
64396;DHT22;50717;53.360;6.290;2023-09-07T05:11:20;17.80;99.90
64396;DHT22;50717;53.360;6.290;2023-09-07T05:13:46;17.90;99.90
64396;DHT22;50717;53.360;6.290;2023-09-07T05:16:12;17.70;99.90
64396;DHT22;50717;53.360;6.290;2023-09-07T05:18:37;18.10;99.90
64396;DHT22;50717;53.360;6.290;2023-09-07T05:21:13;17.80;99.90
64396;DHT22;50717;53.360;6.290;2023-09-07T05:23:39;17.80;99.90
64396;DHT22;50717;53.360;6.290;2023-09-07T05:26:05;17.80;99.90
64396;DHT22;50717;53.360;6.290;2023-09-07T05:28:31;17.70;99.90
64396;DHT22;50717;53.360;6.290;2023-09-07T05:30:57;17.90;99.90
64396;DHT22;50717;53.360;6.290;2023-09-07T05:33:22;17.70;99.90
64396;DHT22;50717;53.360;6.290;2023-09-07T05:35:48;17.70;99.90
64396;DHT22;50717;53.360;6.290;2023-09-07T05:38:14;18.00;99.90
64396;DHT22;50717;53.360;6.290;2023-09-07T05:40:41;17.60;99.90
64396;DHT22;50717;53.360;6.290;2023-09-07T05:43:08;17.70;99.90
64396;DHT22;50717;53.360;6.290;2023-09-07T05:45:40;17.60;99.90
64396;DHT22;50717;53.360;6.290;2023-09-07T05:48:07;17.90;99.90
64396;DHT22;50717;53.360;6.290;2023-09-07T05:50:35;17.70;99.90
64396;DHT22;50717;53.360;6.290;2023-09-07T05:53:01;18.20;99.90
64396;DHT22;50717;53.360;6.290;2023-09-07T05:55:27;18.00;99.90
64396;DHT22;50717;53.360;6.290;2023-09-07T05:57:56;17.90;99.90
64396;DHT22;50717;53.360;6.290;2023-09-07T06:00:22;18.00;99.90
64396;DHT22;50717;53.360;6.290;2023-09-07T06:02:49;18.10;99.90
64396;DHT22;50717;53.360;6.290;2023-09-07T06:05:15;18.10;99.90
64396;DHT22;50717;53.360;6.290;2023-09-07T06:07:41;18.20;99.90
64396;DHT22;50717;53.360;6.290;2023-09-07T06:10:07;17.90;99.90
64396;DHT22;50717;53.360;6.290;2023-09-07T06:12:33;18.40;99.90
64396;DHT22;50717;53.360;6.290;2023-09-07T06:15:02;18.50;99.90
64396;DHT22;50717;53.360;6.290;2023-09-07T06:17:29;18.20;99.90
64396;DHT22;50717;53.360;6.290;2023-09-07T06:19:55;18.20;99.90
64396;DHT22;50717;53.360;6.290;2023-09-07T06:22:21;18.10;99.90
64396;DHT22;50717;53.360;6.290;2023-09-07T06:24:47;18.20;99.90
64396;DHT22;50717;53.360;6.290;2023-09-07T06:27:13;18.70;99.90
64396;DHT22;50717;53.360;6.290;2023-09-07T06:29:38;18.30;99.90
64396;DHT22;50717;53.360;6.290;2023-09-07T06:32:04;18.40;99.90
64396;DHT22;50717;53.360;6.290;2023-09-07T06:34:30;18.30;99.90
64396;DHT22;50717;53.360;6.290;2023-09-07T06:36:55;18.50;99.90
64396;DHT22;50717;53.360;6.290;2023-09-07T06:39:21;19.00;99.90
64396;DHT22;50717;53.360;6.290;2023-09-07T06:41:47;18.90;99.90
64396;DHT22;50717;53.360;6.290;2023-09-07T06:44:13;18.50;99.90
64396;DHT22;50717;53.360;6.290;2023-09-07T06:46:39;19.10;99.90
64396;DHT22;50717;53.360;6.290;2023-09-07T06:49:05;18.90;99.90
64396;DHT22;50717;53.360;6.290;2023-09-07T06:51:31;18.90;99.90
64396;DHT22;50717;53.360;6.290;2023-09-07T06:53:57;19.40;99.90
64396;DHT22;50717;53.360;6.290;2023-09-07T06:56:23;19.00;99.90
64396;DHT22;50717;53.360;6.290;2023-09-07T06:58:49;19.40;99.90
64396;DHT22;50717;53.360;6.290;2023-09-07T07:01:14;19.30;99.90
64396;DHT22;50717;53.360;6.290;2023-09-07T07:03:41;19.30;99.90
64396;DHT22;50717;53.360;6.290;2023-09-07T07:06:07;19.70;99.90
64396;DHT22;50717;53.360;6.290;2023-09-07T07:08:33;19.90;99.90
64396;DHT22;50717;53.360;6.290;2023-09-07T07:10:58;19.70;99.90
64396;DHT22;50717;53.360;6.290;2023-09-07T07:13:25;19.90;99.90
64396;DHT22;50717;53.360;6.290;2023-09-07T07:15:51;20.10;99.90
64396;DHT22;50717;53.360;6.290;2023-09-07T07:18:17;20.20;99.90
64396;DHT22;50717;53.360;6.290;2023-09-07T07:20:43;20.40;99.90
64396;DHT22;50717;53.360;6.290;2023-09-07T07:23:10;20.90;99.90
64396;DHT22;50717;53.360;6.290;2023-09-07T07:25:36;20.50;99.90
64396;DHT22;50717;53.360;6.290;2023-09-07T07:28:05;20.70;99.90
64396;DHT22;50717;53.360;6.290;2023-09-07T07:30:32;20.80;99.90
64396;DHT22;50717;53.360;6.290;2023-09-07T07:32:58;21.20;99.90
64396;DHT22;50717;53.360;6.290;2023-09-07T07:35:24;21.60;99.90
64396;DHT22;50717;53.360;6.290;2023-09-07T07:37:50;21.50;99.90
64396;DHT22;50717;53.360;6.290;2023-09-07T07:40:16;21.40;99.90
64396;DHT22;50717;53.360;6.290;2023-09-07T07:42:44;21.30;99.90
64396;DHT22;50717;53.360;6.290;2023-09-07T07:45:09;21.80;99.90
64396;DHT22;50717;53.360;6.290;2023-09-07T07:47:35;21.70;99.90
64396;DHT22;50717;53.360;6.290;2023-09-07T07:50:01;21.80;99.90
64396;DHT22;50717;53.360;6.290;2023-09-07T07:52:27;22.20;99.90
64396;DHT22;50717;53.360;6.290;2023-09-07T07:54:53;22.10;99.90
64396;DHT22;50717;53.360;6.290;2023-09-07T07:57:19;22.10;99.90
64396;DHT22;50717;53.360;6.290;2023-09-07T07:59:45;22.20;99.90
64396;DHT22;50717;53.360;6.290;2023-09-07T08:02:10;22.40;99.90
64396;DHT22;50717;53.360;6.290;2023-09-07T08:04:36;22.30;99.90
64396;DHT22;50717;53.360;6.290;2023-09-07T08:07:02;22.60;99.90
64396;DHT22;50717;53.360;6.290;2023-09-07T08:09:32;22.50;99.90
64396;DHT22;50717;53.360;6.290;2023-09-07T08:11:58;22.40;99.90
64396;DHT22;50717;53.360;6.290;2023-09-07T08:14:25;22.40;99.90
64396;DHT22;50717;53.360;6.290;2023-09-07T08:16:51;22.50;99.90
64396;DHT22;50717;53.360;6.290;2023-09-07T08:19:17;22.50;99.90
64396;DHT22;50717;53.360;6.290;2023-09-07T08:21:43;22.70;99.90
64396;DHT22;50717;53.360;6.290;2023-09-07T08:24:09;22.70;99.90
64396;DHT22;50717;53.360;6.290;2023-09-07T08:26:36;23.00;99.90
64396;DHT22;50717;53.360;6.290;2023-09-07T08:29:02;23.30;99.90
64396;DHT22;50717;53.360;6.290;2023-09-07T08:31:37;23.40;99.90
64396;DHT22;50717;53.360;6.290;2023-09-07T08:34:05;23.40;99.90
64396;DHT22;50717;53.360;6.290;2023-09-07T08:36:31;23.20;99.90
64396;DHT22;50717;53.360;6.290;2023-09-07T08:39:06;23.10;99.90
64396;DHT22;50717;53.360;6.290;2023-09-07T08:41:38;23.70;99.90
64396;DHT22;50717;53.360;6.290;2023-09-07T08:44:10;23.70;99.90
64396;DHT22;50717;53.360;6.290;2023-09-07T08:46:41;23.90;99.90
64396;DHT22;50717;53.360;6.290;2023-09-07T08:49:06;23.50;99.90
64396;DHT22;50717;53.360;6.290;2023-09-07T08:51:34;24.10;99.90
64396;DHT22;50717;53.360;6.290;2023-09-07T08:54:03;23.70;99.90
64396;DHT22;50717;53.360;6.290;2023-09-07T08:56:29;23.90;99.90
64396;DHT22;50717;53.360;6.290;2023-09-07T08:58:54;23.90;99.90
64396;DHT22;50717;53.360;6.290;2023-09-07T09:01:20;24.20;99.90
64396;DHT22;50717;53.360;6.290;2023-09-07T09:03:50;24.30;99.90
64396;DHT22;50717;53.360;6.290;2023-09-07T09:06:20;24.40;99.90
64396;DHT22;50717;53.360;6.290;2023-09-07T09:08:51;24.70;99.90
64396;DHT22;50717;53.360;6.290;2023-09-07T09:11:18;24.60;99.90
64396;DHT22;50717;53.360;6.290;2023-09-07T09:13:45;24.70;99.90
64396;DHT22;50717;53.360;6.290;2023-09-07T09:16:11;24.70;99.90
64396;DHT22;50717;53.360;6.290;2023-09-07T09:18:46;25.10;99.90
64396;DHT22;50717;53.360;6.290;2023-09-07T09:21:14;24.70;99.90
64396;DHT22;50717;53.360;6.290;2023-09-07T09:23:40;25.10;99.90
64396;DHT22;50717;53.360;6.290;2023-09-07T09:26:06;25.10;99.90
64396;DHT22;50717;53.360;6.290;2023-09-07T09:28:33;25.20;99.90
64396;DHT22;50717;53.360;6.290;2023-09-07T09:31:00;25.30;99.90
64396;DHT22;50717;53.360;6.290;2023-09-07T09:33:26;25.50;99.90
64396;DHT22;50717;53.360;6.290;2023-09-07T09:35:54;25.20;99.90
64396;DHT22;50717;53.360;6.290;2023-09-07T09:38:20;25.60;99.90
64396;DHT22;50717;53.360;6.290;2023-09-07T09:40:46;25.70;99.90
64396;DHT22;50717;53.360;6.290;2023-09-07T09:43:12;25.50;99.90
64396;DHT22;50717;53.360;6.290;2023-09-07T09:45:38;25.80;99.90
64396;DHT22;50717;53.360;6.290;2023-09-07T09:48:06;26.10;99.90
64396;DHT22;50717;53.360;6.290;2023-09-07T09:50:32;26.20;99.90
64396;DHT22;50717;53.360;6.290;2023-09-07T09:53:07;26.50;99.90
64396;DHT22;50717;53.360;6.290;2023-09-07T09:55:36;26.10;99.90
64396;DHT22;50717;53.360;6.290;2023-09-07T09:58:02;25.90;99.90
64396;DHT22;50717;53.360;6.290;2023-09-07T10:00:29;26.20;99.90
64396;DHT22;50717;53.360;6.290;2023-09-07T10:03:02;26.50;99.90
64396;DHT22;50717;53.360;6.290;2023-09-07T10:05:30;26.30;99.90
64396;DHT22;50717;53.360;6.290;2023-09-07T10:08:13;26.10;99.90
64396;DHT22;50717;53.360;6.290;2023-09-07T10:10:42;26.20;99.90
64396;DHT22;50717;53.360;6.290;2023-09-07T10:13:08;26.40;99.90
64396;DHT22;50717;53.360;6.290;2023-09-07T10:15:34;26.70;99.90
64396;DHT22;50717;53.360;6.290;2023-09-07T10:20:56;26.60;99.90
64396;DHT22;50717;53.360;6.290;2023-09-07T10:23:22;26.60;99.90
64396;DHT22;50717;53.360;6.290;2023-09-07T10:25:52;26.90;99.90
64396;DHT22;50717;53.360;6.290;2023-09-07T10:28:19;27.00;99.90
64396;DHT22;50717;53.360;6.290;2023-09-07T10:30:45;26.70;99.90
64396;DHT22;50717;53.360;6.290;2023-09-07T10:33:22;27.20;99.90
64396;DHT22;50717;53.360;6.290;2023-09-07T10:35:48;27.00;99.90
64396;DHT22;50717;53.360;6.290;2023-09-07T10:38:14;27.30;99.90
64396;DHT22;50717;53.360;6.290;2023-09-07T10:40:43;27.40;99.90
64396;DHT22;50717;53.360;6.290;2023-09-07T10:43:09;27.20;99.90
64396;DHT22;50717;53.360;6.290;2023-09-07T10:45:35;27.20;99.90
64396;DHT22;50717;53.360;6.290;2023-09-07T10:48:01;27.30;99.90
64396;DHT22;50717;53.360;6.290;2023-09-07T10:50:29;27.10;99.90
64396;DHT22;50717;53.360;6.290;2023-09-07T10:52:55;27.40;99.90
64396;DHT22;50717;53.360;6.290;2023-09-07T10:55:21;27.20;99.90
64396;DHT22;50717;53.360;6.290;2023-09-07T10:57:47;27.40;99.90
64396;DHT22;50717;53.360;6.290;2023-09-07T11:00:14;27.60;99.90
64396;DHT22;50717;53.360;6.290;2023-09-07T11:02:43;27.20;99.90
64396;DHT22;50717;53.360;6.290;2023-09-07T11:05:09;27.90;99.90
64396;DHT22;50717;53.360;6.290;2023-09-07T11:07:38;27.80;99.90
64396;DHT22;50717;53.360;6.290;2023-09-07T11:10:09;28.80;99.90
64396;DHT22;50717;53.360;6.290;2023-09-07T11:12:39;28.10;99.90
64396;DHT22;50717;53.360;6.290;2023-09-07T11:15:09;28.20;99.90
64396;DHT22;50717;53.360;6.290;2023-09-07T11:17:37;28.00;99.90
64396;DHT22;50717;53.360;6.290;2023-09-07T11:20:05;28.30;99.90
64396;DHT22;50717;53.360;6.290;2023-09-07T11:22:36;28.10;99.90
64396;DHT22;50717;53.360;6.290;2023-09-07T11:25:05;28.10;99.90
64396;DHT22;50717;53.360;6.290;2023-09-07T11:27:31;28.70;99.90
64396;DHT22;50717;53.360;6.290;2023-09-07T11:29:57;28.60;99.90
64396;DHT22;50717;53.360;6.290;2023-09-07T11:32:24;28.60;99.90
64396;DHT22;50717;53.360;6.290;2023-09-07T11:34:51;28.40;99.90
64396;DHT22;50717;53.360;6.290;2023-09-07T11:37:18;28.80;99.90
64396;DHT22;50717;53.360;6.290;2023-09-07T11:39:44;28.60;99.90
64396;DHT22;50717;53.360;6.290;2023-09-07T11:42:10;28.90;99.90
64396;DHT22;50717;53.360;6.290;2023-09-07T11:44:35;28.80;99.90
64396;DHT22;50717;53.360;6.290;2023-09-07T11:47:01;28.70;99.90
64396;DHT22;50717;53.360;6.290;2023-09-07T11:49:27;28.60;99.90
64396;DHT22;50717;53.360;6.290;2023-09-07T11:51:52;28.60;99.90
64396;DHT22;50717;53.360;6.290;2023-09-07T11:54:18;28.50;99.90
64396;DHT22;50717;53.360;6.290;2023-09-07T11:56:44;28.90;99.90
64396;DHT22;50717;53.360;6.290;2023-09-07T11:59:11;29.10;99.90
64396;DHT22;50717;53.360;6.290;2023-09-07T12:01:36;28.80;99.90
64396;DHT22;50717;53.360;6.290;2023-09-07T12:04:05;28.90;99.90
64396;DHT22;50717;53.360;6.290;2023-09-07T12:06:32;29.00;99.90
64396;DHT22;50717;53.360;6.290;2023-09-07T12:08:59;28.90;99.90
64396;DHT22;50717;53.360;6.290;2023-09-07T12:11:25;29.00;99.90
64396;DHT22;50717;53.360;6.290;2023-09-07T12:13:51;29.40;99.90
64396;DHT22;50717;53.360;6.290;2023-09-07T12:16:17;29.10;99.90
64396;DHT22;50717;53.360;6.290;2023-09-07T12:18:42;29.10;99.90
64396;DHT22;50717;53.360;6.290;2023-09-07T12:21:08;28.80;99.90
64396;DHT22;50717;53.360;6.290;2023-09-07T12:23:34;29.10;99.90
64396;DHT22;50717;53.360;6.290;2023-09-07T12:26:01;29.60;99.90
64396;DHT22;50717;53.360;6.290;2023-09-07T12:28:27;29.60;99.90
64396;DHT22;50717;53.360;6.290;2023-09-07T12:30:52;29.00;99.90
64396;DHT22;50717;53.360;6.290;2023-09-07T12:33:18;29.40;99.90
64396;DHT22;50717;53.360;6.290;2023-09-07T12:35:43;29.20;99.90
64396;DHT22;50717;53.360;6.290;2023-09-07T12:38:09;29.60;99.90
64396;DHT22;50717;53.360;6.290;2023-09-07T12:40:36;29.60;99.90
64396;DHT22;50717;53.360;6.290;2023-09-07T12:43:02;29.50;99.90
64396;DHT22;50717;53.360;6.290;2023-09-07T12:45:29;29.10;99.90
64396;DHT22;50717;53.360;6.290;2023-09-07T12:47:54;29.20;99.90
64396;DHT22;50717;53.360;6.290;2023-09-07T12:50:20;29.30;99.90
64396;DHT22;50717;53.360;6.290;2023-09-07T12:52:48;29.40;99.90
64396;DHT22;50717;53.360;6.290;2023-09-07T12:55:13;29.30;99.90
64396;DHT22;50717;53.360;6.290;2023-09-07T12:57:39;29.60;99.90
64396;DHT22;50717;53.360;6.290;2023-09-07T13:00:06;29.80;99.90
64396;DHT22;50717;53.360;6.290;2023-09-07T13:02:32;29.90;99.90
64396;DHT22;50717;53.360;6.290;2023-09-07T13:04:57;29.50;99.90
64396;DHT22;50717;53.360;6.290;2023-09-07T13:07:23;29.80;99.90
64396;DHT22;50717;53.360;6.290;2023-09-07T13:09:49;29.60;99.90
64396;DHT22;50717;53.360;6.290;2023-09-07T13:12:15;29.90;99.90
64396;DHT22;50717;53.360;6.290;2023-09-07T13:14:41;30.10;99.90
64396;DHT22;50717;53.360;6.290;2023-09-07T13:17:11;30.30;99.90
64396;DHT22;50717;53.360;6.290;2023-09-07T13:19:37;30.60;99.90
64396;DHT22;50717;53.360;6.290;2023-09-07T13:22:03;30.20;99.90
64396;DHT22;50717;53.360;6.290;2023-09-07T13:24:29;30.30;99.90
64396;DHT22;50717;53.360;6.290;2023-09-07T13:26:54;30.10;99.90
64396;DHT22;50717;53.360;6.290;2023-09-07T13:29:21;30.50;99.90
64396;DHT22;50717;53.360;6.290;2023-09-07T13:31:46;29.80;99.90
64396;DHT22;50717;53.360;6.290;2023-09-07T13:34:12;30.30;99.90
64396;DHT22;50717;53.360;6.290;2023-09-07T13:36:38;30.60;99.90
64396;DHT22;50717;53.360;6.290;2023-09-07T13:39:04;30.30;99.90
64396;DHT22;50717;53.360;6.290;2023-09-07T13:41:29;30.30;99.90
64396;DHT22;50717;53.360;6.290;2023-09-07T13:43:55;30.70;99.90
64396;DHT22;50717;53.360;6.290;2023-09-07T13:46:22;30.90;99.90
64396;DHT22;50717;53.360;6.290;2023-09-07T13:48:48;30.60;99.90
64396;DHT22;50717;53.360;6.290;2023-09-07T13:51:14;30.70;99.90
64396;DHT22;50717;53.360;6.290;2023-09-07T13:53:40;30.90;99.90
64396;DHT22;50717;53.360;6.290;2023-09-07T13:56:06;30.80;99.90
64396;DHT22;50717;53.360;6.290;2023-09-07T13:58:32;31.20;99.90
64396;DHT22;50717;53.360;6.290;2023-09-07T14:00:57;31.30;99.90
64396;DHT22;50717;53.360;6.290;2023-09-07T14:03:23;31.30;99.90
64396;DHT22;50717;53.360;6.290;2023-09-07T14:05:49;30.80;99.90
64396;DHT22;50717;53.360;6.290;2023-09-07T14:08:15;31.60;99.90
64396;DHT22;50717;53.360;6.290;2023-09-07T14:10:41;31.10;99.90
64396;DHT22;50717;53.360;6.290;2023-09-07T14:13:06;31.80;99.90
64396;DHT22;50717;53.360;6.290;2023-09-07T14:15:32;32.00;99.90
64396;DHT22;50717;53.360;6.290;2023-09-07T14:17:58;31.50;99.90
64396;DHT22;50717;53.360;6.290;2023-09-07T14:20:23;32.20;99.80
64396;DHT22;50717;53.360;6.290;2023-09-07T14:22:49;32.40;99.90
64396;DHT22;50717;53.360;6.290;2023-09-07T14:25:15;32.10;99.90
64396;DHT22;50717;53.360;6.290;2023-09-07T14:27:42;31.80;99.90
64396;DHT22;50717;53.360;6.290;2023-09-07T14:30:07;32.20;99.90
64396;DHT22;50717;53.360;6.290;2023-09-07T14:32:33;32.60;99.80
64396;DHT22;50717;53.360;6.290;2023-09-07T14:34:59;32.90;99.90
64396;DHT22;50717;53.360;6.290;2023-09-07T14:37:25;32.90;99.90
64396;DHT22;50717;53.360;6.290;2023-09-07T14:39:50;32.30;99.50
64396;DHT22;50717;53.360;6.290;2023-09-07T14:42:16;32.80;99.40
64396;DHT22;50717;53.360;6.290;2023-09-07T14:44:45;32.90;99.30
64396;DHT22;50717;53.360;6.290;2023-09-07T14:47:11;33.00;99.20
64396;DHT22;50717;53.360;6.290;2023-09-07T14:49:37;32.80;99.00
64396;DHT22;50717;53.360;6.290;2023-09-07T14:52:03;33.10;99.00
64396;DHT22;50717;53.360;6.290;2023-09-07T14:54:28;32.90;98.20
64396;DHT22;50717;53.360;6.290;2023-09-07T14:56:54;33.30;98.50
64396;DHT22;50717;53.360;6.290;2023-09-07T14:59:20;33.20;98.80
64396;DHT22;50717;53.360;6.290;2023-09-07T15:01:45;33.20;99.00
64396;DHT22;50717;53.360;6.290;2023-09-07T15:04:11;33.50;99.10
64396;DHT22;50717;53.360;6.290;2023-09-07T15:06:37;33.40;98.60
64396;DHT22;50717;53.360;6.290;2023-09-07T15:09:03;33.30;98.60
64396;DHT22;50717;53.360;6.290;2023-09-07T15:11:29;33.50;98.80
64396;DHT22;50717;53.360;6.290;2023-09-07T15:13:56;33.90;98.50
64396;DHT22;50717;53.360;6.290;2023-09-07T15:16:21;34.20;98.90
64396;DHT22;50717;53.360;6.290;2023-09-07T15:18:49;33.90;98.70
64396;DHT22;50717;53.360;6.290;2023-09-07T15:21:17;34.40;98.90
64396;DHT22;50717;53.360;6.290;2023-09-07T15:23:43;34.50;98.50
64396;DHT22;50717;53.360;6.290;2023-09-07T15:26:09;34.60;98.20
64396;DHT22;50717;53.360;6.290;2023-09-07T15:28:37;33.70;98.00